Lindsay, Montana
Current Conditions -  °F | °C
As of 1:55 PM on Thursday 27 Nov 2014 (Local Time) from KGDV Reporting Station
Broken Clouds Broken Clouds  
Wind Chill: 26°   Ceiling: 10000
Heat Index: 34°   Visibility: 10mi
Dew Point: 27°   Wind: 9mph
Humidity: 75%   Direction: 200°SSW
Pressure: 29.79"   Gusts: NA
Location:  47.22°N, 105.15°W
Report Text: KGDV 272055Z AUTO 20008KT 10SM BKN100 01/M03 A2979 RMK AO1 57041
Loading
Personal Weather Stations






























Interactive Weather Map New forecast layout! Learn more

10-Day Weather Forecast

Advertisements
Track Severe Weather on mobile